createdAt,value
2024-01-17T00:00:00.380Z,196.89
2024-01-17T00:00:58.422Z,196.34
2024-01-17T00:01:58.348Z,195.84
2024-01-17T00:02:58.345Z,195.34
2024-01-17T00:03:58.421Z,197.08
2024-01-17T00:04:58.448Z,197.03
2024-01-17T00:05:58.480Z,196.55
2024-01-17T00:06:58.608Z,194.86
2024-01-17T00:07:58.484Z,196.02
2024-01-17T00:08:58.447Z,196.49
2024-01-17T00:09:58.395Z,195.79
2024-01-17T00:10:58.355Z,195.40
2024-01-17T00:11:58.426Z,196.04
2024-01-17T00:12:58.503Z,196.73
2024-01-17T00:13:58.401Z,196.58
2024-01-17T00:14:58.458Z,194.77
2024-01-17T00:15:58.469Z,195.91
2024-01-17T00:16:58.494Z,196.70
2024-01-17T00:17:58.444Z,195.64
2024-01-17T00:18:58.407Z,194.76
2024-01-17T00:19:58.492Z,198.33
2024-01-17T00:20:58.517Z,196.16
2024-01-17T00:21:58.468Z,194.96
2024-01-17T00:22:58.401Z,195.98
2024-01-17T00:23:58.438Z,196.31
2024-01-17T00:24:58.463Z,195.49
2024-01-17T00:25:58.460Z,194.60
2024-01-17T00:26:58.479Z,193.07
2024-01-17T00:27:58.470Z,195.88
2024-01-17T00:28:58.446Z,193.98
2024-01-17T00:29:58.708Z,194.67
2024-01-17T00:30:58.516Z,195.38
2024-01-17T00:31:58.423Z,195.97
2024-01-17T00:32:58.542Z,193.54
2024-01-17T00:33:58.520Z,194.86
2024-01-17T00:34:58.523Z,195.15
2024-01-17T00:35:58.537Z,196.56
2024-01-17T00:36:58.417Z,195.73
2024-01-17T00:37:58.471Z,196.24
2024-01-17T00:38:58.385Z,196.48
2024-01-17T00:39:58.486Z,193.21
2024-01-17T00:40:58.354Z,195.40
2024-01-17T00:41:58.485Z,196.52
2024-01-17T00:42:58.478Z,195.96
2024-01-17T00:43:58.481Z,195.47
2024-01-17T00:44:58.521Z,195.00
2024-01-17T00:45:58.345Z,195.58
2024-01-17T00:46:58.467Z,197.12
2024-01-17T00:47:58.685Z,194.48
2024-01-17T00:48:58.480Z,196.15
2024-01-17T00:49:58.357Z,195.58
2024-01-17T00:50:58.451Z,194.68
2024-01-17T00:51:58.523Z,195.13
2024-01-17T00:52:58.353Z,195.40
2024-01-17T00:53:58.420Z,195.58
2024-01-17T00:54:58.382Z,194.62
2024-01-17T00:55:58.364Z,195.94
2024-01-17T00:56:58.521Z,194.77
2024-01-17T00:57:58.373Z,196.00
2024-01-17T00:58:58.368Z,195.49
2024-01-17T00:59:58.409Z,192.89
2024-01-17T01:00:58.400Z,194.97
2024-01-17T01:01:58.466Z,193.31
2024-01-17T01:02:59.100Z,195.68
2024-01-17T01:03:58.413Z,194.75
2024-01-17T01:04:58.374Z,195.14
2024-01-17T01:05:58.411Z,193.71
2024-01-17T01:06:58.381Z,194.54
2024-01-17T01:07:58.615Z,193.50
2024-01-17T01:08:58.552Z,195.98
2024-01-17T01:09:58.376Z,193.04
2024-01-17T01:10:58.381Z,194.42
2024-01-17T01:11:58.503Z,195.27
2024-01-17T01:12:58.560Z,194.79
2024-01-17T01:13:58.397Z,194.92
2024-01-17T01:14:58.496Z,192.46
2024-01-17T01:15:58.460Z,193.82
2024-01-17T01:16:58.568Z,194.39
2024-01-17T01:17:58.699Z,194.63
2024-01-17T01:18:58.758Z,194.53
2024-01-17T01:19:58.564Z,196.16
2024-01-17T01:20:58.739Z,190.42
2024-01-17T01:21:58.636Z,192.74
2024-01-17T01:22:58.596Z,195.84
2024-01-17T01:23:58.756Z,195.83
2024-01-17T01:24:58.640Z,192.41
2024-01-17T01:25:58.703Z,193.98
2024-01-17T01:26:58.727Z,194.70
2024-01-17T01:27:58.716Z,194.39
2024-01-17T01:28:58.699Z,194.38
2024-01-17T01:29:58.779Z,193.63
2024-01-17T01:30:58.754Z,190.46
2024-01-17T01:31:58.709Z,192.93
2024-01-17T01:32:58.791Z,194.23
2024-01-17T01:33:58.933Z,194.14
2024-01-17T01:34:58.805Z,195.24
2024-01-17T01:35:58.868Z,192.59
2024-01-17T01:36:58.807Z,195.41
2024-01-17T01:37:58.819Z,193.43
2024-01-17T01:38:58.921Z,194.93
2024-01-17T01:39:58.848Z,193.66
2024-01-17T01:40:58.844Z,194.50
2024-01-17T01:41:58.918Z,192.89
2024-01-17T01:42:58.888Z,193.32
2024-01-17T01:43:58.917Z,193.62
2024-01-17T01:44:59.022Z,196.61
2024-01-17T01:45:58.996Z,193.76
2024-01-17T01:46:58.989Z,192.67
2024-01-17T01:47:59.102Z,194.95
2024-01-17T01:48:59.109Z,191.96
2024-01-17T01:49:59.046Z,193.52
2024-01-17T01:50:59.132Z,193.30
2024-01-17T01:51:59.071Z,194.98
2024-01-17T01:52:59.082Z,193.18
2024-01-17T01:53:59.168Z,193.61
2024-01-17T01:54:59.103Z,192.66
2024-01-17T01:55:59.183Z,193.22
2024-01-17T01:56:59.149Z,192.85
2024-01-17T01:57:59.163Z,193.56
2024-01-17T01:58:59.173Z,193.93
2024-01-17T01:59:59.229Z,193.00
2024-01-17T02:00:59.266Z,193.90
2024-01-17T02:01:59.230Z,192.38
2024-01-17T02:02:59.270Z,194.21
2024-01-17T02:03:59.384Z,193.52
2024-01-17T02:04:59.282Z,194.29
2024-01-17T02:05:59.324Z,192.01
2024-01-17T02:06:59.255Z,191.77
2024-01-17T02:07:59.272Z,192.28
2024-01-17T02:08:59.312Z,192.39
2024-01-17T02:09:59.314Z,193.07
2024-01-17T02:10:59.311Z,193.81
2024-01-17T02:11:59.428Z,191.35
2024-01-17T02:12:59.318Z,193.39
2024-01-17T02:13:59.324Z,195.23
2024-01-17T02:14:59.372Z,194.86
2024-01-17T02:15:59.376Z,193.20
2024-01-17T02:16:59.376Z,195.11
2024-01-17T02:17:59.482Z,194.60
2024-01-17T02:18:59.439Z,194.25
2024-01-17T02:19:59.428Z,193.85
2024-01-17T02:20:59.441Z,194.32
2024-01-17T02:21:59.456Z,192.13
2024-01-17T02:22:59.460Z,194.11
2024-01-17T02:23:59.496Z,193.00
2024-01-17T02:24:59.505Z,194.91
2024-01-17T02:25:59.641Z,194.95
2024-01-17T02:26:59.628Z,192.12
2024-01-17T02:27:59.623Z,194.50
2024-01-17T02:28:59.571Z,193.04
2024-01-17T02:29:59.654Z,193.83
2024-01-17T02:30:59.714Z,194.02
2024-01-17T02:31:59.900Z,194.11
2024-01-17T02:32:59.744Z,193.85
2024-01-17T02:33:59.892Z,194.29
2024-01-17T02:34:59.675Z,193.45
2024-01-17T02:35:59.817Z,191.28
2024-01-17T02:36:59.687Z,194.73
2024-01-17T02:37:59.713Z,195.09
2024-01-17T02:38:59.822Z,191.00
2024-01-17T02:39:59.730Z,193.12
2024-01-17T02:40:59.736Z,191.51
2024-01-17T02:41:59.767Z,190.89
2024-01-17T02:42:59.742Z,193.07
2024-01-17T02:43:59.758Z,193.98
2024-01-17T02:44:59.822Z,194.50
2024-01-17T02:45:59.812Z,193.51
2024-01-17T02:46:59.805Z,191.89
2024-01-17T02:47:59.885Z,193.34
2024-01-17T02:48:59.979Z,192.24
2024-01-17T02:49:59.873Z,193.66
2024-01-17T02:50:59.897Z,194.20
2024-01-17T02:51:59.857Z,194.64
2024-01-17T02:52:59.856Z,193.55
2024-01-17T02:53:59.984Z,194.18
2024-01-17T02:54:59.876Z,194.45
2024-01-17T02:55:59.936Z,192.10
2024-01-17T02:56:59.939Z,189.74
2024-01-17T02:57:59.920Z,192.71
2024-01-17T02:58:59.915Z,190.23
2024-01-17T03:00:00.154Z,195.23
2024-01-17T03:01:00.021Z,195.93
2024-01-17T03:01:59.929Z,192.90
2024-01-17T03:02:59.965Z,194.31
2024-01-17T03:03:59.970Z,193.45
2024-01-17T03:05:00.013Z,193.98
2024-01-17T03:06:00.081Z,193.20
2024-01-17T03:07:00.042Z,193.52
2024-01-17T03:08:00.064Z,190.56
2024-01-17T03:09:00.144Z,191.69
2024-01-17T03:10:00.109Z,192.50
2024-01-17T03:11:00.105Z,190.16
2024-01-17T03:12:00.371Z,191.28
2024-01-17T03:13:00.170Z,193.22
2024-01-17T03:14:00.164Z,191.60
2024-01-17T03:15:00.267Z,191.12
2024-01-17T03:16:00.329Z,195.62
2024-01-17T03:17:00.190Z,193.40
2024-01-17T03:18:00.382Z,192.02
2024-01-17T03:19:00.511Z,192.89
2024-01-17T03:20:00.337Z,193.73
2024-01-17T03:21:00.321Z,194.18
2024-01-17T03:22:00.266Z,194.10
2024-01-17T03:23:00.294Z,193.63
2024-01-17T03:24:00.352Z,193.19
2024-01-17T03:25:00.306Z,192.77
2024-01-17T03:26:00.315Z,192.41
2024-01-17T03:27:00.350Z,193.93
2024-01-17T03:28:00.331Z,190.32
2024-01-17T03:29:00.347Z,192.20
2024-01-17T03:30:00.471Z,192.42
2024-01-17T03:31:00.396Z,194.80
2024-01-17T03:32:00.479Z,195.34
2024-01-17T03:33:00.472Z,192.73
2024-01-17T03:34:00.528Z,189.98
2024-01-17T03:35:00.510Z,192.10
2024-01-17T03:36:00.561Z,192.95
2024-01-17T03:37:00.471Z,191.07
2024-01-17T03:38:00.488Z,190.00
2024-01-17T03:39:00.543Z,193.29
2024-01-17T03:40:00.559Z,191.19
2024-01-17T03:41:00.551Z,191.97
2024-01-17T03:42:00.585Z,192.82
2024-01-17T03:43:00.586Z,191.86
2024-01-17T03:44:00.589Z,193.32
2024-01-17T03:45:00.684Z,193.37
2024-01-17T03:46:00.688Z,191.68
2024-01-17T03:47:00.630Z,192.18
2024-01-17T03:48:00.795Z,190.78
2024-01-17T03:49:00.730Z,188.17
2024-01-17T03:50:00.653Z,190.26
2024-01-17T03:51:00.686Z,192.02
2024-01-17T03:52:00.709Z,190.57
2024-01-17T03:53:00.714Z,189.41
2024-01-17T03:54:00.815Z,192.08
2024-01-17T03:55:00.762Z,190.68
2024-01-17T03:56:00.798Z,191.79
2024-01-17T03:57:00.821Z,192.65
2024-01-17T03:58:00.811Z,192.96
2024-01-17T03:59:00.819Z,192.61
2024-01-17T04:00:00.909Z,191.66
2024-01-17T04:01:00.852Z,188.77
2024-01-17T04:02:00.851Z,190.88
2024-01-17T04:03:00.896Z,193.32
2024-01-17T04:04:00.979Z,190.49
2024-01-17T04:05:00.999Z,192.00
2024-01-17T04:06:00.965Z,194.05
2024-01-17T04:07:00.973Z,191.76
2024-01-17T04:08:00.982Z,191.69
2024-01-17T04:09:01.024Z,192.38
2024-01-17T04:10:00.999Z,191.85
2024-01-17T04:11:00.999Z,191.61
2024-01-17T04:12:01.063Z,188.49
2024-01-17T04:13:01.021Z,192.19
2024-01-17T04:14:01.067Z,193.59
2024-01-17T04:15:01.107Z,191.80
2024-01-17T04:16:01.126Z,191.75
2024-01-17T04:17:01.162Z,190.78
2024-01-17T04:18:01.249Z,191.84
2024-01-17T04:19:01.293Z,190.98
2024-01-17T04:20:01.307Z,191.37
2024-01-17T04:21:01.237Z,192.86
2024-01-17T04:22:01.235Z,192.63
2024-01-17T04:23:02.802Z,194.09
2024-01-17T04:24:01.291Z,190.48
2024-01-17T04:25:01.307Z,193.82
2024-01-17T04:26:01.245Z,193.02
2024-01-17T04:27:01.265Z,192.47
2024-01-17T04:28:01.238Z,190.84
2024-01-17T04:29:01.215Z,189.55
2024-01-17T04:30:01.289Z,191.39
2024-01-17T04:31:01.272Z,191.79
2024-01-17T04:32:01.233Z,193.88
2024-01-17T04:33:01.314Z,190.21
2024-01-17T04:34:01.479Z,192.28
2024-01-17T04:35:01.216Z,190.29
2024-01-17T04:36:01.254Z,190.02
2024-01-17T04:37:01.223Z,192.83
2024-01-17T04:38:01.224Z,190.34
2024-01-17T04:39:01.253Z,193.38
2024-01-17T04:40:01.221Z,189.78
2024-01-17T04:41:01.216Z,191.06
2024-01-17T04:42:01.302Z,191.00
2024-01-17T04:43:01.214Z,191.33
2024-01-17T04:44:08.881Z,50.00
2024-01-17T04:45:08.978Z,50.00
2024-01-17T04:46:08.876Z,50.00
2024-01-17T04:47:08.884Z,50.00
2024-01-17T04:48:09.229Z,50.00
2024-01-17T04:49:09.275Z,50.25
2024-01-17T04:50:08.935Z,50.00
2024-01-17T04:51:11.441Z,50.21
2024-01-17T04:52:08.885Z,50.34
2024-01-17T04:53:08.885Z,50.72
2024-01-17T04:54:08.892Z,51.05
2024-01-17T04:55:08.912Z,50.16
2024-01-17T04:56:08.884Z,52.13
2024-01-17T04:57:13.916Z,52.42
2024-01-17T04:58:08.889Z,52.49
2024-01-17T04:59:08.902Z,52.73
2024-01-17T05:00:08.960Z,52.78
2024-01-17T05:01:08.908Z,52.70
2024-01-17T05:02:08.901Z,51.55
2024-01-17T05:03:08.936Z,51.50
2024-01-17T05:04:08.902Z,53.24
2024-01-17T05:05:09.024Z,54.74
2024-01-17T05:06:09.036Z,51.26
2024-01-17T05:07:09.045Z,51.89
2024-01-17T05:08:08.922Z,53.60
2024-01-17T05:09:08.941Z,52.57
2024-01-17T05:10:09.013Z,52.92
2024-01-17T05:11:08.910Z,53.21
2024-01-17T05:12:11.210Z,50.54
2024-01-17T05:13:09.005Z,54.89
2024-01-17T05:14:08.921Z,54.78
2024-01-17T05:15:09.074Z,50.00
2024-01-17T05:16:08.922Z,51.07
2024-01-17T05:17:08.945Z,54.27
2024-01-17T05:18:08.987Z,55.45
2024-01-17T05:19:09.085Z,51.14
2024-01-17T05:20:08.935Z,55.26
2024-01-17T05:21:09.061Z,54.58
2024-01-17T05:22:08.952Z,55.13
2024-01-17T05:23:09.044Z,53.94
2024-01-17T05:24:08.975Z,53.45
2024-01-17T05:25:08.955Z,55.80
2024-01-17T05:26:08.961Z,55.65
2024-01-17T05:27:09.041Z,54.47
2024-01-17T05:28:08.963Z,52.71
2024-01-17T05:29:08.964Z,55.11
2024-01-17T05:30:09.501Z,53.83
2024-01-17T05:31:09.032Z,53.74
2024-01-17T05:32:08.978Z,54.27
2024-01-17T05:33:09.164Z,54.25
2024-01-17T05:34:09.092Z,53.17
2024-01-17T05:35:08.971Z,55.33
2024-01-17T05:36:09.096Z,54.67
2024-01-17T05:37:08.985Z,53.58
2024-01-17T05:38:08.975Z,53.35
2024-01-17T05:39:09.104Z,55.68
2024-01-17T05:40:08.977Z,54.83
2024-01-17T05:41:08.996Z,54.88
2024-01-17T05:42:09.099Z,53.54
2024-01-17T05:43:08.990Z,53.60
2024-01-17T05:44:08.984Z,52.85
2024-01-17T05:45:09.257Z,53.65
2024-01-17T05:46:19.586Z,54.75
2024-01-17T05:47:08.996Z,54.86
2024-01-17T05:48:09.068Z,55.01
2024-01-17T05:49:09.088Z,55.03
2024-01-17T05:50:08.993Z,55.42
2024-01-17T05:51:09.062Z,54.89
2024-01-17T05:52:08.994Z,54.55
2024-01-17T05:53:09.010Z,54.11
2024-01-17T05:54:09.064Z,54.08
2024-01-17T05:55:09.082Z,50.73
2024-01-17T05:56:09.027Z,54.29
2024-01-17T05:57:09.089Z,56.24
2024-01-17T05:58:09.002Z,54.87
2024-01-17T05:59:09.013Z,54.43
2024-01-17T06:00:09.110Z,53.72
2024-01-17T06:01:09.025Z,54.07
2024-01-17T06:02:09.008Z,54.28
2024-01-17T06:03:09.089Z,54.78
2024-01-17T06:04:09.077Z,54.01
2024-01-17T06:05:09.098Z,52.25
2024-01-17T06:06:09.066Z,53.97
2024-01-17T06:07:09.063Z,51.20
2024-01-17T06:08:09.028Z,53.62
2024-01-17T06:09:09.100Z,53.91
2024-01-17T06:10:09.039Z,55.67
2024-01-17T06:11:09.167Z,55.27
2024-01-17T06:12:09.137Z,53.89
2024-01-17T06:13:09.126Z,52.65
2024-01-17T06:14:09.159Z,55.38
2024-01-17T06:15:09.336Z,55.21
2024-01-17T06:16:09.217Z,53.82
2024-01-17T06:17:09.245Z,50.40
2024-01-17T06:18:09.337Z,56.51
2024-01-17T06:19:09.340Z,53.57
2024-01-17T06:20:09.325Z,54.74
2024-01-17T06:21:09.585Z,54.20
2024-01-17T06:22:09.389Z,54.88
2024-01-17T06:23:09.426Z,55.12
2024-01-17T06:24:09.518Z,56.02
2024-01-17T06:25:09.499Z,51.49
2024-01-17T06:26:09.510Z,54.90
2024-01-17T06:27:09.713Z,57.02
2024-01-17T06:28:09.558Z,54.74
2024-01-17T06:29:09.596Z,54.85
2024-01-17T06:30:09.890Z,54.71
2024-01-17T06:31:09.731Z,55.14
2024-01-17T06:32:09.651Z,53.41
2024-01-17T06:33:09.813Z,53.17
2024-01-17T06:34:09.795Z,54.13
2024-01-17T06:35:09.710Z,54.69
2024-01-17T06:36:09.760Z,54.58
2024-01-17T06:37:09.741Z,55.90
2024-01-17T06:38:09.769Z,56.33
2024-01-17T06:39:09.908Z,53.82
2024-01-17T06:40:09.933Z,53.65
2024-01-17T06:41:09.849Z,55.87
2024-01-17T06:42:10.067Z,54.39
2024-01-17T06:43:09.982Z,54.96
2024-01-17T06:44:09.932Z,55.70
2024-01-17T06:45:10.015Z,53.61
2024-01-17T06:46:09.971Z,56.03
2024-01-17T06:47:09.992Z,54.75
2024-01-17T06:48:10.216Z,55.12
2024-01-17T06:49:10.432Z,53.25
2024-01-17T06:50:10.165Z,53.32
2024-01-17T06:51:10.292Z,55.25
2024-01-17T06:52:10.127Z,52.86
2024-01-17T06:53:10.163Z,56.72
2024-01-17T06:54:10.249Z,56.19
2024-01-17T06:55:10.215Z,56.82
2024-01-17T06:56:10.196Z,54.83
2024-01-17T06:57:10.329Z,54.97
2024-01-17T06:58:10.238Z,56.74
2024-01-17T06:59:10.247Z,54.66
2024-01-17T07:00:10.309Z,53.80
2024-01-17T07:01:10.342Z,55.42
2024-01-17T07:02:10.292Z,54.27
2024-01-17T07:03:10.425Z,54.04
2024-01-17T07:04:10.378Z,55.68
2024-01-17T07:05:10.379Z,57.17
2024-01-17T07:06:10.481Z,53.19
2024-01-17T07:07:10.388Z,55.14
2024-01-17T07:08:10.494Z,54.19
2024-01-17T07:09:10.460Z,55.88
2024-01-17T07:10:10.423Z,52.86
2024-01-17T07:11:10.445Z,55.09
2024-01-17T07:12:10.506Z,54.50
2024-01-17T07:13:10.510Z,55.31
2024-01-17T07:14:10.501Z,55.28
2024-01-17T07:15:10.617Z,54.55
2024-01-17T07:16:10.551Z,55.21
2024-01-17T07:17:10.596Z,55.75
2024-01-17T07:18:10.664Z,56.05
2024-01-17T07:19:10.645Z,54.42
2024-01-17T07:20:10.674Z,54.29
2024-01-17T07:21:10.755Z,54.18
2024-01-17T07:22:10.731Z,52.03
2024-01-17T07:23:10.772Z,52.44
2024-01-17T07:24:10.828Z,50.72
2024-01-17T07:25:10.810Z,53.40
2024-01-17T07:26:10.818Z,52.76
2024-01-17T07:27:11.002Z,52.75
2024-01-17T07:28:10.900Z,53.04
2024-01-17T07:29:10.902Z,51.65
2024-01-17T07:30:11.021Z,53.28
2024-01-17T07:31:10.985Z,52.59
2024-01-17T07:32:10.960Z,50.91
2024-01-17T07:33:11.099Z,54.87
2024-01-17T07:34:11.111Z,56.91
2024-01-17T07:35:11.014Z,52.15
2024-01-17T07:36:11.067Z,57.39
2024-01-17T07:37:14.272Z,55.90
2024-01-17T07:38:11.047Z,55.99
2024-01-17T07:39:11.129Z,56.38
2024-01-17T07:40:11.049Z,57.59
2024-01-17T07:41:11.061Z,59.08
2024-01-17T07:42:11.078Z,59.47
2024-01-17T07:43:11.072Z,61.17
2024-01-17T07:44:11.051Z,61.73
2024-01-17T07:45:11.186Z,64.63
2024-01-17T07:46:11.063Z,62.00
2024-01-17T07:47:11.074Z,67.89
2024-01-17T07:48:11.145Z,64.15
2024-01-17T07:49:11.338Z,69.27
2024-01-17T07:50:11.076Z,72.25
2024-01-17T07:51:11.194Z,69.48
2024-01-17T07:52:11.092Z,70.02
2024-01-17T07:53:11.069Z,71.57
2024-01-17T07:54:11.094Z,73.53
2024-01-17T07:55:11.077Z,75.12
2024-01-17T07:56:11.105Z,77.72
2024-01-17T07:57:11.133Z,79.74
2024-01-17T07:58:11.084Z,83.08
2024-01-17T07:59:11.091Z,80.45
2024-01-17T08:00:11.138Z,80.92
2024-01-17T08:01:11.117Z,79.30
2024-01-17T08:02:11.089Z,82.55
2024-01-17T08:03:11.224Z,82.82
2024-01-17T08:04:11.215Z,79.58
2024-01-17T08:05:11.114Z,80.99
2024-01-17T08:06:11.169Z,83.79
2024-01-17T08:07:16.169Z,84.13
2024-01-17T08:08:11.105Z,84.23
2024-01-17T08:09:11.264Z,84.54
2024-01-17T08:10:11.105Z,84.50
2024-01-17T08:11:11.123Z,83.34
2024-01-17T08:12:11.221Z,83.66
2024-01-17T08:13:11.121Z,82.40
2024-01-17T08:14:11.123Z,82.12
2024-01-17T08:15:11.344Z,83.98
2024-01-17T08:16:11.113Z,82.06
2024-01-17T08:17:11.127Z,81.55
2024-01-17T08:18:11.233Z,79.50
2024-01-17T08:19:11.326Z,78.62
2024-01-17T08:20:11.165Z,78.90
2024-01-17T08:21:11.256Z,77.47
2024-01-17T08:22:11.238Z,79.69
2024-01-17T08:23:11.190Z,77.51
2024-01-17T08:24:11.248Z,75.11
2024-01-17T08:25:11.219Z,74.34
2024-01-17T08:26:11.227Z,75.18
2024-01-17T08:27:11.342Z,74.74
2024-01-17T08:28:11.286Z,71.80
2024-01-17T08:29:11.570Z,71.77
2024-01-17T08:30:11.740Z,73.37
2024-01-17T08:31:11.360Z,70.95
2024-01-17T08:32:11.366Z,71.77
2024-01-17T08:33:11.554Z,71.49
2024-01-17T08:34:11.628Z,70.16
2024-01-17T08:35:11.518Z,70.31
2024-01-17T08:36:11.499Z,70.00
2024-01-17T08:37:11.467Z,69.92
2024-01-17T08:38:11.499Z,67.25
2024-01-17T08:39:11.592Z,66.34
2024-01-17T08:40:11.546Z,66.35
2024-01-17T08:41:11.562Z,69.33
2024-01-17T08:42:11.621Z,67.38
2024-01-17T08:43:11.604Z,67.12
2024-01-17T08:44:11.637Z,69.47
2024-01-17T08:45:11.831Z,65.04
2024-01-17T08:46:11.666Z,67.04
2024-01-17T08:47:11.711Z,65.04
2024-01-17T08:48:11.840Z,65.71
2024-01-17T08:49:11.812Z,65.03
2024-01-17T08:50:11.754Z,59.75
2024-01-17T08:51:11.807Z,65.65
2024-01-17T08:52:11.790Z,62.68
2024-01-17T08:53:11.785Z,61.34
2024-01-17T08:54:12.088Z,60.48
2024-01-17T08:55:11.817Z,59.85
2024-01-17T08:56:11.829Z,57.22
2024-01-17T08:57:12.046Z,54.35
2024-01-17T08:58:11.873Z,53.59
2024-01-17T08:59:11.872Z,54.68
2024-01-17T09:00:11.925Z,51.13
2024-01-17T09:01:12.009Z,49.78
2024-01-17T09:02:11.908Z,52.75
2024-01-17T09:03:11.932Z,53.15
2024-01-17T09:04:11.916Z,54.68
2024-01-17T09:05:11.932Z,64.15
2024-01-17T09:06:11.974Z,66.13
2024-01-17T09:07:12.154Z,58.92
2024-01-17T09:08:12.147Z,58.45
2024-01-17T09:09:12.162Z,58.82
2024-01-17T09:20:30.243Z,50.00
2024-01-17T09:21:30.192Z,50.00
2024-01-17T09:22:30.197Z,50.00
2024-01-17T09:23:30.211Z,50.00
2024-01-17T09:24:30.180Z,50.00
2024-01-17T09:25:30.170Z,50.00
2024-01-17T09:26:30.236Z,50.00
2024-01-17T09:27:30.173Z,50.00
2024-01-17T09:28:30.185Z,50.00
2024-01-17T09:29:30.281Z,50.59
2024-01-17T09:30:30.252Z,50.44
2024-01-17T09:31:30.172Z,50.03
2024-01-17T09:32:30.218Z,49.68
2024-01-17T09:33:30.283Z,52.31
2024-01-17T09:34:30.459Z,50.00
2024-01-17T09:35:30.214Z,52.59
2024-01-17T09:36:30.238Z,52.00
2024-01-17T09:37:30.185Z,51.66
2024-01-17T09:38:30.292Z,51.74
2024-01-17T09:39:30.192Z,52.37
2024-01-17T09:40:30.176Z,50.00
2024-01-17T09:41:30.226Z,50.19
2024-01-17T09:42:30.182Z,51.58
2024-01-17T09:43:30.339Z,52.57
2024-01-17T09:44:30.216Z,57.25
2024-01-17T09:45:30.264Z,57.74
2024-01-17T09:46:30.295Z,59.47
2024-01-17T09:47:30.417Z,59.47
2024-01-17T09:48:30.578Z,59.61
2024-01-17T09:49:30.656Z,62.32
2024-01-17T09:50:30.589Z,60.72
2024-01-17T09:51:30.637Z,61.39
2024-01-17T09:52:30.706Z,60.31
2024-01-17T09:53:30.800Z,59.53
2024-01-17T09:54:30.783Z,57.92
2024-01-17T09:55:30.802Z,56.65
2024-01-17T09:56:30.904Z,55.24
2024-01-17T09:57:30.854Z,54.24
2024-01-17T09:58:30.867Z,50.32
2024-01-17T09:59:30.949Z,51.82
2024-01-17T10:00:30.956Z,50.75
2024-01-17T10:01:30.973Z,50.00
2024-01-17T10:02:31.015Z,50.00
2024-01-17T10:03:31.060Z,51.12
2024-01-17T10:04:30.991Z,50.83
2024-01-17T10:05:32.305Z,50.65
2024-01-17T10:06:31.137Z,50.26
2024-01-17T10:07:31.033Z,50.24
2024-01-17T10:08:31.076Z,53.16
2024-01-17T10:09:31.079Z,50.35
2024-01-17T10:10:31.096Z,52.42
2024-01-17T10:11:31.145Z,50.52
2024-01-17T10:12:31.781Z,50.92
2024-01-17T10:13:31.138Z,51.49
2024-01-17T10:14:31.205Z,50.55
2024-01-17T10:15:31.174Z,52.02
2024-01-17T10:16:31.201Z,51.54
2024-01-17T10:17:31.289Z,51.52
2024-01-17T10:18:31.307Z,52.93
2024-01-17T10:19:31.437Z,54.61
2024-01-17T10:20:31.399Z,52.99
2024-01-17T10:21:31.291Z,56.30
2024-01-17T10:22:31.304Z,54.46
2024-01-17T10:23:31.343Z,55.41
2024-01-17T10:24:31.353Z,56.31
2024-01-17T10:25:31.341Z,55.92
2024-01-17T10:26:31.443Z,53.65
2024-01-17T10:27:31.395Z,53.81
2024-01-17T10:28:31.409Z,54.81
2024-01-17T10:29:31.709Z,54.62
2024-01-17T10:30:31.615Z,58.06
2024-01-17T10:31:31.511Z,62.15
2024-01-17T10:32:31.553Z,58.47
2024-01-17T10:33:31.560Z,56.16
2024-01-17T10:34:31.624Z,58.16
2024-01-17T10:35:31.570Z,63.25
2024-01-17T10:36:31.612Z,63.84
2024-01-17T10:37:31.562Z,64.79
2024-01-17T10:38:31.604Z,62.55
2024-01-17T10:39:31.577Z,61.49
2024-01-17T10:40:31.627Z,61.16
2024-01-17T10:41:31.654Z,62.04
2024-01-17T10:42:31.654Z,55.93
2024-01-17T10:43:31.700Z,48.39
2024-01-17T10:44:31.785Z,51.58
2024-01-17T10:45:31.775Z,55.69
2024-01-17T10:46:31.784Z,59.07
2024-01-17T10:47:31.869Z,63.88
2024-01-17T10:48:32.010Z,63.57
2024-01-17T10:49:31.988Z,65.41
2024-01-17T10:50:31.939Z,65.87
2024-01-17T10:51:32.097Z,64.27
2024-01-17T10:52:31.967Z,66.16
2024-01-17T10:53:38.110Z,66.96
2024-01-17T10:54:33.090Z,66.51
2024-01-17T10:55:32.048Z,62.55
2024-01-17T10:56:32.153Z,64.41
2024-01-17T10:57:32.054Z,67.31
2024-01-17T10:58:32.062Z,67.59
2024-01-17T10:59:32.057Z,66.55
2024-01-17T11:00:32.131Z,68.43
2024-01-17T11:01:32.046Z,67.97
2024-01-17T11:02:32.080Z,70.04
2024-01-17T11:03:32.142Z,71.49
2024-01-17T11:04:32.090Z,70.49
2024-01-17T11:05:32.082Z,73.73
2024-01-17T11:06:32.066Z,72.95
2024-01-17T11:07:32.118Z,72.49
2024-01-17T11:08:32.160Z,80.37
2024-01-17T11:39:31.374Z,50.00
2024-01-17T11:40:31.411Z,50.00
2024-01-17T11:41:31.354Z,50.00
2024-01-17T11:42:31.327Z,50.00
2024-01-17T11:43:31.335Z,50.00
2024-01-17T11:44:31.416Z,37.67
2024-01-17T11:45:31.365Z,37.68
2024-01-17T11:46:31.339Z,35.41
2024-01-17T11:47:31.333Z,40.49
2024-01-17T11:48:31.468Z,50.33
2024-01-17T11:49:31.374Z,50.00
2024-01-17T11:50:31.373Z,49.35
2024-01-17T11:51:31.367Z,51.07
2024-01-17T11:52:31.360Z,50.86
2024-01-17T11:53:31.408Z,51.13
2024-01-17T11:54:31.395Z,50.00
2024-01-17T12:43:40.682Z,50.00
2024-01-17T12:44:40.720Z,50.00
2024-01-17T12:45:40.836Z,50.00
2024-01-17T12:46:40.695Z,50.00
2024-01-17T12:47:40.745Z,50.00
2024-01-17T12:48:40.785Z,40.76
2024-01-17T12:49:40.765Z,35.35
2024-01-17T12:50:40.758Z,43.21
2024-01-17T12:51:42.386Z,50.00
2024-01-17T12:52:40.700Z,50.00
2024-01-17T12:53:40.777Z,50.00
2024-01-17T12:54:40.709Z,49.78
2024-01-17T12:55:40.696Z,49.04
2024-01-17T12:56:40.762Z,50.00
2024-01-17T12:57:40.714Z,60.77
2024-01-17T12:58:40.719Z,60.18
2024-01-17T12:59:40.766Z,53.14
2024-01-17T13:00:40.947Z,50.06
2024-01-17T13:01:40.841Z,50.73
2024-01-17T13:02:40.867Z,52.27
2024-01-17T13:03:40.868Z,50.00
2024-01-17T13:04:40.943Z,50.42
2024-01-17T13:05:41.043Z,50.51
2024-01-17T13:06:41.081Z,53.30
2024-01-17T13:07:41.284Z,54.08
2024-01-17T13:08:41.073Z,54.25
2024-01-17T13:09:41.081Z,57.86
2024-01-17T13:10:41.114Z,56.39
2024-01-17T13:11:41.124Z,52.22
2024-01-17T13:12:41.169Z,52.64
2024-01-17T13:13:41.177Z,52.41
2024-01-17T13:14:46.209Z,50.00
2024-01-17T13:15:41.173Z,50.05
2024-01-17T13:16:41.186Z,47.80
2024-01-17T13:17:41.202Z,46.05
2024-01-17T13:18:41.328Z,44.20
2024-01-17T13:19:41.194Z,42.63
2024-01-17T13:20:41.228Z,50.00
2024-01-17T13:21:41.187Z,52.43
2024-01-17T13:22:41.200Z,50.00
2024-01-17T13:23:41.242Z,50.24
2024-01-17T13:24:41.272Z,50.00
2024-01-17T13:25:41.192Z,51.21
2024-01-17T13:26:41.233Z,50.00
2024-01-17T13:27:41.197Z,51.22
2024-01-17T13:28:41.214Z,50.73
2024-01-17T13:29:41.289Z,51.99
2024-01-17T13:30:41.209Z,50.42
2024-01-17T13:31:41.214Z,50.65
2024-01-17T13:32:41.326Z,51.46
2024-01-17T13:33:41.319Z,50.07
2024-01-17T13:34:41.467Z,50.00
2024-01-17T13:35:41.357Z,50.00
2024-01-17T13:36:41.249Z,50.00
2024-01-17T13:37:41.231Z,50.84
2024-01-17T13:38:41.330Z,51.17
2024-01-17T13:39:41.224Z,51.57
2024-01-17T13:40:41.260Z,50.58
2024-01-17T13:41:41.281Z,50.43
2024-01-17T13:42:41.298Z,50.18
2024-01-17T13:43:41.304Z,51.16
2024-01-17T13:44:41.367Z,50.03
2024-01-17T13:45:41.361Z,50.91
2024-01-17T13:46:41.377Z,50.00
2024-01-17T13:47:41.472Z,51.27
2024-01-17T13:48:41.497Z,50.00
2024-01-17T13:49:41.646Z,50.92
2024-01-17T13:50:41.489Z,50.35
2024-01-17T13:51:41.477Z,50.11
2024-01-17T13:52:41.498Z,50.94
2024-01-17T13:53:41.516Z,50.48
2024-01-17T13:54:41.508Z,50.63
2024-01-17T13:55:41.506Z,50.00
2024-01-17T13:56:41.554Z,50.12
2024-01-17T13:57:41.538Z,53.28
2024-01-17T13:58:41.538Z,50.43
2024-01-17T13:59:41.607Z,51.35
2024-01-17T14:00:41.585Z,50.00
2024-01-17T14:01:41.617Z,50.36
2024-01-17T14:02:41.674Z,51.33
2024-01-17T14:03:41.704Z,50.00
2024-01-17T14:04:41.737Z,52.26
2024-01-17T14:05:41.725Z,51.47
2024-01-17T14:06:41.812Z,53.29
2024-01-17T14:07:41.732Z,50.00
2024-01-17T14:08:41.774Z,51.85
2024-01-17T14:09:41.760Z,51.33
2024-01-17T14:10:41.787Z,50.00
2024-01-17T14:11:41.874Z,51.54